createdAt,value
2023-10-31T00:01:53.255Z,0.00
2023-10-31T00:02:53.336Z,0.00
2023-10-31T00:03:53.173Z,0.00
2023-10-31T00:04:54.449Z,0.00
2023-10-31T00:05:55.866Z,0.00
2023-10-31T00:06:54.822Z,0.00
2023-10-31T00:07:54.283Z,0.00
2023-10-31T00:08:54.256Z,0.00
2023-10-31T00:09:54.281Z,0.00
2023-10-31T00:10:54.299Z,0.00
2023-10-31T00:11:54.830Z,0.00
2023-10-31T00:12:54.214Z,0.00
2023-10-31T00:13:55.472Z,0.00
2023-10-31T00:14:54.190Z,0.00
2023-10-31T00:15:55.491Z,0.00
2023-10-31T00:16:54.217Z,0.00
2023-10-31T00:17:54.246Z,0.00
2023-10-31T00:18:54.234Z,0.00
2023-10-31T00:19:54.276Z,0.00
2023-10-31T00:20:54.260Z,0.00
2023-10-31T00:21:54.895Z,0.00
2023-10-31T00:22:54.934Z,0.00
2023-10-31T00:23:54.151Z,0.00
2023-10-31T00:24:55.177Z,0.00
2023-10-31T00:25:56.187Z,0.00
2023-10-31T00:26:54.303Z,0.00
2023-10-31T00:27:54.137Z,0.00
2023-10-31T00:28:54.147Z,0.00
2023-10-31T00:29:54.076Z,0.00
2023-10-31T00:30:54.099Z,0.00
2023-10-31T00:31:54.148Z,0.00
2023-10-31T00:32:54.935Z,0.00
2023-10-31T00:33:54.995Z,0.00
2023-10-31T00:34:54.902Z,0.00
2023-10-31T00:35:54.146Z,0.00
2023-10-31T00:36:54.873Z,0.00
2023-10-31T00:37:54.104Z,0.00
2023-10-31T00:38:54.007Z,0.00
2023-10-31T00:39:53.996Z,0.00
2023-10-31T00:40:54.088Z,0.00
2023-10-31T00:41:54.073Z,0.00
2023-10-31T00:42:54.705Z,0.00
2023-10-31T00:43:54.001Z,0.00
2023-10-31T00:44:53.999Z,0.00
2023-10-31T00:45:53.973Z,0.00
2023-10-31T00:46:54.042Z,0.00
2023-10-31T00:47:54.007Z,0.00
2023-10-31T00:48:53.941Z,0.00
2023-10-31T00:49:54.055Z,0.00
2023-10-31T00:50:54.954Z,0.00
2023-10-31T00:51:53.991Z,0.00
2023-10-31T00:52:53.980Z,0.00
2023-10-31T00:53:53.990Z,0.00
2023-10-31T00:54:54.873Z,0.00
2023-10-31T00:55:54.897Z,0.00
2023-10-31T00:56:53.869Z,0.00
2023-10-31T00:57:53.865Z,0.00
2023-10-31T00:58:53.879Z,0.00
2023-10-31T00:59:54.857Z,0.00
2023-10-31T01:00:53.838Z,0.00
2023-10-31T01:01:53.865Z,0.00
2023-10-31T01:02:53.876Z,0.00
2023-10-31T01:03:53.921Z,0.00
2023-10-31T01:04:54.437Z,0.00
2023-10-31T01:05:53.961Z,0.00
2023-10-31T01:06:53.832Z,0.00
2023-10-31T01:22:49.799Z,0.00
2023-10-31T01:24:23.536Z,0.00
2023-10-31T01:24:50.253Z,0.00
2023-10-31T01:26:26.592Z,0.00
2023-10-31T01:26:50.293Z,0.00
2023-10-31T01:27:50.220Z,0.00
2023-10-31T01:28:50.275Z,0.00
2023-10-31T01:29:52.076Z,0.00
2023-10-31T01:30:50.165Z,0.00
2023-10-31T01:31:59.151Z,0.00
2023-10-31T01:32:54.158Z,0.00
2023-10-31T01:33:50.398Z,0.00
2023-10-31T01:34:50.230Z,0.00
2023-10-31T01:35:50.288Z,0.00
2023-10-31T01:36:50.133Z,0.00
2023-10-31T01:37:50.116Z,0.00
2023-10-31T01:38:50.104Z,0.00
2023-10-31T01:39:50.148Z,0.00
2023-10-31T01:40:50.202Z,0.00
2023-10-31T01:41:50.122Z,0.00
2023-10-31T01:42:51.217Z,0.00
2023-10-31T01:43:52.514Z,0.00
2023-10-31T01:44:50.084Z,0.00
2023-10-31T01:45:50.107Z,0.00
2023-10-31T01:46:50.132Z,0.00
2023-10-31T01:47:51.090Z,0.00
2023-10-31T01:48:50.084Z,0.00
2023-10-31T01:49:50.325Z,0.00
2023-10-31T01:50:50.242Z,0.00
2023-10-31T01:51:50.036Z,0.00
2023-10-31T01:52:53.647Z,0.00
2023-10-31T01:53:50.038Z,0.00
2023-10-31T01:54:50.037Z,0.00
2023-10-31T01:55:50.009Z,0.00
2023-10-31T01:56:49.976Z,0.00
2023-10-31T01:57:49.946Z,0.00
2023-10-31T01:58:49.965Z,0.00
2023-10-31T01:59:49.919Z,0.00
2023-10-31T02:00:50.953Z,0.00
2023-10-31T02:01:50.707Z,0.00
2023-10-31T02:02:51.055Z,0.00
2023-10-31T02:03:50.700Z,0.00
2023-10-31T02:04:49.920Z,0.00
2023-10-31T02:05:49.884Z,0.00
2023-10-31T02:06:49.941Z,0.00
2023-10-31T02:07:49.905Z,0.00
2023-10-31T02:08:51.603Z,0.00
2023-10-31T02:09:49.843Z,0.00
2023-10-31T02:10:50.088Z,0.00
2023-10-31T02:11:49.834Z,0.00
2023-10-31T02:12:49.830Z,0.00
2023-10-31T02:13:49.853Z,0.00
2023-10-31T02:14:49.861Z,0.00
2023-10-31T02:15:50.731Z,0.00
2023-10-31T02:16:49.923Z,0.00
2023-10-31T02:17:49.868Z,0.00
2023-10-31T02:18:49.869Z,0.00
2023-10-31T02:19:49.813Z,0.00
2023-10-31T02:20:50.497Z,0.00
2023-10-31T02:21:50.695Z,0.00
2023-10-31T02:22:49.797Z,0.00
2023-10-31T02:23:49.878Z,0.00
2023-10-31T02:24:49.811Z,0.00
2023-10-31T02:25:49.862Z,0.00
2023-10-31T02:26:49.844Z,0.00
2023-10-31T02:27:49.812Z,0.00
2023-10-31T02:28:49.748Z,0.00
2023-10-31T02:29:49.745Z,0.00
2023-10-31T02:30:49.743Z,0.00
2023-10-31T02:31:49.811Z,0.00
2023-10-31T02:32:49.798Z,0.00
2023-10-31T02:33:50.493Z,0.00
2023-10-31T02:34:49.767Z,0.00
2023-10-31T02:35:49.681Z,0.00
2023-10-31T02:36:49.811Z,0.00
2023-10-31T02:37:50.186Z,0.00
2023-10-31T02:38:49.701Z,0.00
2023-10-31T02:39:52.250Z,0.00
2023-10-31T02:40:49.680Z,0.00
2023-10-31T02:41:49.695Z,0.00
2023-10-31T02:42:49.803Z,0.00
2023-10-31T02:43:49.631Z,0.00
2023-10-31T02:44:49.604Z,0.00
2023-10-31T02:45:49.626Z,0.00
2023-10-31T02:46:50.187Z,0.00
2023-10-31T02:47:49.630Z,0.00
2023-10-31T02:48:49.637Z,0.00
2023-10-31T02:49:49.649Z,0.00
2023-10-31T02:50:49.571Z,0.00
2023-10-31T02:51:49.587Z,0.00
2023-10-31T02:52:49.564Z,0.00
2023-10-31T02:53:49.572Z,0.00
2023-10-31T02:54:49.536Z,0.00
2023-10-31T02:55:49.559Z,0.00
2023-10-31T02:56:49.511Z,0.00
2023-10-31T02:57:49.490Z,0.00
2023-10-31T02:58:49.495Z,0.00
2023-10-31T02:59:49.507Z,0.00
2023-10-31T03:00:49.562Z,0.00
2023-10-31T03:01:49.608Z,0.00
2023-10-31T03:02:50.283Z,0.00
2023-10-31T03:03:49.490Z,0.00
2023-10-31T03:04:49.868Z,0.00
2023-10-31T03:05:50.217Z,0.00
2023-10-31T03:06:49.562Z,0.00
2023-10-31T03:07:49.437Z,0.00
2023-10-31T03:08:49.489Z,0.00
2023-10-31T03:09:49.598Z,0.00
2023-10-31T03:10:49.461Z,0.00
2023-10-31T03:11:49.406Z,0.00
2023-10-31T03:12:49.389Z,0.00
2023-10-31T03:13:49.410Z,0.00
2023-10-31T03:14:49.367Z,0.00
2023-10-31T03:15:49.458Z,0.00
2023-10-31T03:16:50.351Z,0.00
2023-10-31T03:17:50.023Z,0.00
2023-10-31T03:18:49.380Z,0.00
2023-10-31T03:19:49.401Z,0.00
2023-10-31T03:20:49.388Z,0.00
2023-10-31T03:21:49.389Z,0.00
2023-10-31T03:22:49.435Z,0.00
2023-10-31T03:23:49.300Z,0.00
2023-10-31T03:24:49.276Z,0.00
2023-10-31T03:25:49.354Z,0.00
2023-10-31T03:26:49.282Z,0.00
2023-10-31T03:27:50.272Z,0.00
2023-10-31T03:28:49.321Z,0.00
2023-10-31T03:29:49.257Z,0.00
2023-10-31T03:30:50.758Z,0.00
2023-10-31T03:31:49.316Z,0.00
2023-10-31T03:32:49.224Z,0.00
2023-10-31T03:33:49.226Z,0.00
2023-10-31T03:34:50.235Z,0.00
2023-10-31T03:35:49.398Z,0.00
2023-10-31T03:36:50.237Z,0.00
2023-10-31T03:37:50.254Z,0.00
2023-10-31T03:38:49.259Z,0.00
2023-10-31T03:39:50.051Z,0.00
2023-10-31T03:40:49.219Z,0.00
2023-10-31T03:41:49.151Z,0.00
2023-10-31T03:42:49.147Z,0.00
2023-10-31T03:43:49.187Z,0.00
2023-10-31T03:44:49.185Z,0.00
2023-10-31T03:45:49.782Z,0.00
2023-10-31T03:46:49.130Z,0.00
2023-10-31T03:47:49.183Z,0.00
2023-10-31T04:03:59.901Z,0.00
2023-10-31T04:04:59.916Z,0.00
2023-10-31T04:06:01.036Z,0.00
2023-10-31T04:07:01.582Z,0.00
2023-10-31T04:08:01.108Z,0.00
2023-10-31T04:09:01.003Z,0.00
2023-10-31T04:10:00.993Z,0.00
2023-10-31T04:11:01.021Z,0.00
2023-10-31T04:12:01.016Z,0.00
2023-10-31T04:13:00.991Z,0.00
2023-10-31T04:14:00.966Z,0.00
2023-10-31T04:15:00.973Z,0.00
2023-10-31T04:16:00.971Z,0.00
2023-10-31T04:17:01.022Z,0.00
2023-10-31T04:18:00.979Z,0.00
2023-10-31T04:19:00.923Z,0.00
2023-10-31T04:20:00.976Z,0.00
2023-10-31T04:21:01.646Z,0.00
2023-10-31T04:22:00.949Z,0.00
2023-10-31T04:23:00.950Z,0.00
2023-10-31T04:24:00.916Z,0.00
2023-10-31T04:25:02.470Z,0.00
2023-10-31T04:26:01.596Z,0.00
2023-10-31T04:27:00.883Z,0.00
2023-10-31T04:28:00.841Z,0.00
2023-10-31T04:29:00.905Z,0.00
2023-10-31T04:30:00.880Z,0.00
2023-10-31T04:31:00.892Z,0.00
2023-10-31T04:32:00.924Z,0.00
2023-10-31T04:33:01.527Z,0.00
2023-10-31T04:34:00.830Z,0.00
2023-10-31T04:35:00.870Z,0.00
2023-10-31T04:36:00.782Z,0.00
2023-10-31T04:37:01.873Z,0.00
2023-10-31T04:38:00.837Z,0.00
2023-10-31T04:39:00.761Z,0.00
2023-10-31T04:40:00.788Z,0.00
2023-10-31T04:41:00.750Z,0.00
2023-10-31T04:42:00.742Z,0.00
2023-10-31T04:43:00.796Z,0.00
2023-10-31T04:44:00.763Z,0.00
2023-10-31T04:45:00.818Z,0.00
2023-10-31T04:46:00.729Z,0.00
2023-10-31T04:47:00.847Z,0.00
2023-10-31T04:48:00.879Z,0.00
2023-10-31T04:49:00.710Z,0.00
2023-10-31T04:50:00.769Z,0.00
2023-10-31T04:51:00.682Z,0.00
2023-10-31T04:52:00.680Z,0.00
2023-10-31T04:53:00.685Z,0.00
2023-10-31T04:54:00.672Z,0.00
2023-10-31T04:55:00.710Z,0.00
2023-10-31T04:56:00.674Z,0.00
2023-10-31T04:57:00.668Z,0.00
2023-10-31T04:58:00.631Z,0.00
2023-10-31T04:59:01.233Z,0.00
2023-10-31T05:00:00.734Z,0.00
2023-10-31T05:01:00.606Z,0.00
2023-10-31T05:02:00.745Z,0.00
2023-10-31T05:03:00.627Z,0.00
2023-10-31T05:04:10.766Z,0.00
2023-10-31T05:05:02.698Z,0.00
2023-10-31T05:06:01.098Z,0.00
2023-10-31T05:07:00.579Z,0.00
2023-10-31T05:08:00.595Z,0.00
2023-10-31T05:09:00.551Z,0.00
2023-10-31T05:10:00.579Z,0.00
2023-10-31T05:11:00.605Z,0.00
2023-10-31T05:12:01.562Z,0.00
2023-10-31T05:13:00.504Z,0.00
2023-10-31T05:14:00.596Z,0.00
2023-10-31T05:15:00.499Z,0.00
2023-10-31T05:16:00.500Z,0.00
2023-10-31T05:17:00.517Z,0.00
2023-10-31T05:18:00.545Z,0.00
2023-10-31T05:19:00.481Z,0.00
2023-10-31T05:20:01.150Z,0.00
2023-10-31T05:21:01.489Z,0.00
2023-10-31T05:22:00.456Z,0.00
2023-10-31T05:23:01.042Z,0.00
2023-10-31T05:24:00.438Z,0.00
2023-10-31T05:25:00.421Z,0.00
2023-10-31T05:26:00.454Z,0.00
2023-10-31T05:27:00.413Z,0.00
2023-10-31T05:28:00.398Z,0.00
2023-10-31T05:29:00.411Z,0.00
2023-10-31T05:30:00.438Z,0.00
2023-10-31T05:31:00.365Z,0.00
2023-10-31T05:32:00.365Z,0.00
2023-10-31T05:33:00.422Z,0.00
2023-10-31T05:34:00.374Z,0.00
2023-10-31T05:35:00.830Z,0.00
2023-10-31T05:36:01.317Z,0.00
2023-10-31T05:37:00.345Z,0.00
2023-10-31T05:38:01.158Z,0.00
2023-10-31T05:39:00.299Z,0.00
2023-10-31T05:40:00.292Z,0.00
2023-10-31T05:41:00.316Z,0.00
2023-10-31T05:42:00.289Z,0.00
2023-10-31T05:43:00.282Z,4.00
2023-10-31T05:44:00.330Z,4.00
2023-10-31T05:45:00.276Z,4.00
2023-10-31T05:46:01.388Z,4.00
2023-10-31T05:47:00.289Z,4.00
2023-10-31T05:48:00.360Z,4.00
2023-10-31T05:49:01.131Z,0.00
2023-10-31T05:50:03.330Z,4.00
2023-10-31T05:51:00.231Z,4.00
2023-10-31T05:52:00.208Z,4.00
2023-10-31T05:53:01.050Z,8.00
2023-10-31T05:54:00.302Z,8.00
2023-10-31T05:55:00.942Z,12.00
2023-10-31T05:56:00.325Z,12.00
2023-10-31T05:57:01.150Z,16.00
2023-10-31T05:58:00.250Z,16.00
2023-10-31T05:59:00.289Z,20.00
2023-10-31T06:00:00.246Z,24.00
2023-10-31T06:01:01.150Z,28.00
2023-10-31T06:02:00.213Z,28.00
2023-10-31T06:03:00.240Z,32.00
2023-10-31T06:04:00.168Z,44.00
2023-10-31T06:05:01.282Z,44.00
2023-10-31T06:06:00.159Z,48.00
2023-10-31T06:07:00.104Z,44.00
2023-10-31T06:08:01.206Z,40.00
2023-10-31T06:09:00.651Z,40.00
2023-10-31T06:10:00.133Z,52.00
2023-10-31T06:11:01.045Z,60.00
2023-10-31T06:12:01.934Z,68.00
2023-10-31T06:13:00.082Z,96.00
2023-10-31T06:14:00.123Z,96.00
2023-10-31T06:15:00.071Z,128.00
2023-10-31T06:16:01.755Z,112.00
2023-10-31T06:17:00.062Z,108.00
2023-10-31T06:18:00.694Z,92.00
2023-10-31T06:19:00.651Z,96.00
2023-10-31T06:19:59.988Z,100.00
2023-10-31T06:20:59.965Z,100.00
2023-10-31T06:21:59.982Z,104.00
2023-10-31T06:23:00.025Z,124.00
2023-10-31T06:23:59.980Z,132.00
2023-10-31T06:25:00.018Z,160.00
2023-10-31T06:25:59.990Z,172.00
2023-10-31T06:26:59.924Z,196.00
2023-10-31T06:27:59.926Z,204.00
2023-10-31T06:29:18.210Z,200.00
2023-10-31T06:30:11.929Z,188.00
2023-10-31T06:31:01.951Z,216.00
2023-10-31T06:31:59.983Z,260.00
2023-10-31T06:33:00.498Z,320.00
2023-10-31T06:33:59.878Z,376.00
2023-10-31T06:34:59.945Z,400.00
2023-10-31T06:35:59.879Z,412.00
2023-10-31T06:37:00.480Z,356.00
2023-10-31T06:38:00.462Z,340.00
2023-10-31T06:38:59.829Z,360.00
2023-10-31T06:39:59.865Z,396.00
2023-10-31T06:41:02.273Z,496.00
2023-10-31T06:42:00.527Z,624.00
2023-10-31T06:43:00.055Z,760.00
2023-10-31T06:43:59.956Z,824.00
2023-10-31T06:44:59.811Z,952.00
2023-10-31T06:45:59.845Z,1088.00
2023-10-31T06:47:00.578Z,1272.00
2023-10-31T06:47:59.857Z,1408.00
2023-10-31T06:48:59.774Z,1504.00
2023-10-31T06:49:59.818Z,1576.00
2023-10-31T06:50:59.747Z,1496.00
2023-10-31T06:51:59.798Z,1248.00
2023-10-31T06:52:59.793Z,1308.00
2023-10-31T06:53:59.732Z,1480.00
2023-10-31T06:54:59.740Z,1456.00
2023-10-31T06:56:00.710Z,1524.00
2023-10-31T06:56:59.715Z,1488.00
2023-10-31T06:57:59.724Z,1468.00
2023-10-31T06:58:59.698Z,1600.00
2023-10-31T06:59:59.698Z,1676.00
2023-10-31T07:00:59.722Z,1724.00
2023-10-31T07:01:59.769Z,2084.00
2023-10-31T07:02:59.685Z,1524.00
2023-10-31T07:04:00.727Z,1376.00
2023-10-31T07:04:59.751Z,1312.00
2023-10-31T07:05:59.628Z,1476.00
2023-10-31T07:06:59.637Z,1684.00
2023-10-31T07:07:59.653Z,2172.00
2023-10-31T07:08:59.636Z,2492.00
2023-10-31T07:09:59.641Z,3992.00
2023-10-31T07:11:02.218Z,3376.00
2023-10-31T07:12:00.578Z,2900.00
2023-10-31T07:12:59.590Z,1660.00
2023-10-31T07:13:59.604Z,1408.00
2023-10-31T07:14:59.733Z,1632.00
2023-10-31T07:15:59.597Z,864.00
2023-10-31T07:16:59.597Z,492.00
2023-10-31T07:17:59.584Z,404.00
2023-10-31T07:18:59.580Z,392.00
2023-10-31T07:19:59.625Z,404.00
2023-10-31T07:20:59.505Z,384.00
2023-10-31T07:21:59.505Z,340.00
2023-10-31T07:22:59.566Z,352.00
2023-10-31T07:23:59.506Z,388.00
2023-10-31T07:24:59.520Z,436.00
2023-10-31T07:25:59.516Z,508.00
2023-10-31T07:26:59.496Z,804.00
2023-10-31T07:27:59.508Z,684.00
2023-10-31T07:28:59.491Z,728.00
2023-10-31T07:29:59.487Z,652.00
2023-10-31T07:30:59.425Z,608.00
2023-10-31T07:31:59.547Z,620.00
2023-10-31T07:32:59.508Z,664.00
2023-10-31T07:33:59.456Z,812.00
2023-10-31T07:34:59.425Z,844.00
2023-10-31T07:35:59.396Z,808.00
2023-10-31T07:36:59.392Z,1040.00
2023-10-31T07:37:59.448Z,1616.00
2023-10-31T07:38:59.402Z,1740.00
2023-10-31T07:39:59.370Z,1500.00
2023-10-31T07:40:59.429Z,1496.00
2023-10-31T07:41:59.386Z,1600.00
2023-10-31T07:42:59.353Z,1896.00
2023-10-31T07:43:59.372Z,2452.00
2023-10-31T07:44:59.357Z,2452.00
2023-10-31T07:45:59.324Z,1892.00
2023-10-31T07:46:59.389Z,1900.00
2023-10-31T07:48:00.044Z,1520.00
2023-10-31T07:48:59.300Z,1416.00
2023-10-31T07:49:59.343Z,1700.00
2023-10-31T07:50:59.292Z,1748.00
2023-10-31T07:52:00.212Z,1800.00
2023-10-31T07:53:00.171Z,2204.00
2023-10-31T07:53:59.277Z,2488.00
2023-10-31T07:54:59.248Z,2752.00
2023-10-31T07:55:59.293Z,3072.00
2023-10-31T07:56:59.229Z,2412.00
2023-10-31T07:57:59.298Z,10484.00
2023-10-31T07:59:00.161Z,4432.00
2023-10-31T07:59:59.218Z,4616.00
2023-10-31T08:00:59.234Z,4308.00
2023-10-31T08:01:59.255Z,4176.00
2023-10-31T08:02:59.297Z,3752.00
2023-10-31T08:04:00.715Z,4008.00
2023-10-31T08:04:59.211Z,3868.00
2023-10-31T08:05:59.207Z,3932.00
2023-10-31T08:06:59.164Z,4680.00
2023-10-31T08:07:59.170Z,7692.00
2023-10-31T08:08:59.146Z,10100.00
2023-10-31T08:09:59.139Z,9388.00
2023-10-31T08:10:59.190Z,7456.00
2023-10-31T08:11:59.116Z,8092.00
2023-10-31T08:12:59.164Z,6760.00
2023-10-31T08:13:59.147Z,4808.00
2023-10-31T08:14:59.314Z,4352.00
2023-10-31T08:15:59.116Z,4768.00
2023-10-31T08:16:59.113Z,4788.00
2023-10-31T08:17:59.074Z,5552.00
2023-10-31T08:18:59.044Z,6628.00
2023-10-31T08:19:59.056Z,6852.00
2023-10-31T08:20:59.044Z,5040.00
2023-10-31T08:21:59.681Z,4364.00
2023-10-31T08:23:00.052Z,3824.00
2023-10-31T08:23:59.003Z,3908.00
2023-10-31T08:25:00.009Z,4544.00
2023-10-31T08:25:59.049Z,5316.00
2023-10-31T08:26:59.012Z,6324.00
2023-10-31T08:27:58.982Z,6880.00
2023-10-31T08:28:58.986Z,7448.00
2023-10-31T08:29:58.966Z,8508.00
2023-10-31T08:30:58.980Z,17824.00
2023-10-31T08:31:59.055Z,16704.00
2023-10-31T08:32:58.978Z,20800.00
2023-10-31T08:33:58.983Z,19616.00
2023-10-31T08:34:59.053Z,17920.00
2023-10-31T08:35:58.958Z,13780.00
2023-10-31T08:36:58.916Z,12920.00
2023-10-31T08:37:59.642Z,11188.00
2023-10-31T08:38:58.911Z,12836.00
2023-10-31T08:39:58.929Z,14308.00
2023-10-31T08:40:59.062Z,12100.00
2023-10-31T08:41:58.889Z,17024.00
2023-10-31T08:42:58.944Z,9260.00
2023-10-31T08:43:58.950Z,9284.00
2023-10-31T08:44:58.875Z,6552.00
2023-10-31T08:45:58.841Z,5940.00
2023-10-31T08:46:58.928Z,4828.00
2023-10-31T08:47:58.882Z,5820.00
2023-10-31T08:48:58.822Z,10092.00
2023-10-31T08:49:58.894Z,8556.00
2023-10-31T08:50:58.846Z,8316.00
2023-10-31T08:51:58.804Z,6620.00
2023-10-31T08:53:00.236Z,6376.00
2023-10-31T08:53:58.814Z,7544.00
2023-10-31T08:54:58.812Z,7704.00
2023-10-31T08:55:58.828Z,6452.00
2023-10-31T08:56:58.734Z,7624.00
2023-10-31T08:57:58.750Z,4912.00
2023-10-31T08:58:58.740Z,5576.00
2023-10-31T08:59:58.740Z,4956.00
2023-10-31T09:00:58.829Z,3728.00
2023-10-31T09:01:58.720Z,4136.00
2023-10-31T09:02:59.674Z,4724.00
2023-10-31T09:03:58.786Z,5696.00
2023-10-31T09:04:58.798Z,8120.00
2023-10-31T09:05:58.706Z,6800.00
2023-10-31T09:06:58.790Z,5360.00
2023-10-31T09:07:58.730Z,5576.00
2023-10-31T09:08:58.685Z,7316.00
2023-10-31T09:09:58.646Z,12536.00
2023-10-31T09:10:58.733Z,9468.00
2023-10-31T09:11:58.664Z,15268.00
2023-10-31T09:12:59.258Z,40448.00
2023-10-31T09:13:58.670Z,11564.00
2023-10-31T09:14:58.639Z,25504.00
2023-10-31T09:15:59.698Z,16512.00
2023-10-31T09:16:58.670Z,36672.00
2023-10-31T09:17:58.632Z,16128.00
2023-10-31T09:18:58.621Z,42784.00
2023-10-31T09:19:58.607Z,76384.00
2023-10-31T09:20:58.595Z,50592.00
2023-10-31T09:21:58.582Z,22688.00
2023-10-31T09:22:58.641Z,31712.00
2023-10-31T09:23:58.561Z,12524.00
2023-10-31T09:24:58.608Z,19232.00
2023-10-31T09:25:58.698Z,24896.00
2023-10-31T09:26:58.550Z,14988.00
2023-10-31T09:27:58.553Z,24288.00
2023-10-31T09:28:58.526Z,13544.00
2023-10-31T09:29:58.542Z,17760.00
2023-10-31T09:30:58.532Z,13404.00
2023-10-31T09:31:58.550Z,16160.00
2023-10-31T09:32:58.646Z,19744.00
2023-10-31T09:33:58.602Z,10944.00
2023-10-31T09:34:58.539Z,18144.00
2023-10-31T09:35:58.505Z,18752.00
2023-10-31T09:36:58.500Z,11176.00
2023-10-31T09:37:58.466Z,8800.00
2023-10-31T09:38:58.453Z,7552.00
2023-10-31T09:39:58.450Z,7040.00
2023-10-31T09:40:58.456Z,12984.00
2023-10-31T09:41:58.412Z,9724.00
2023-10-31T09:42:58.407Z,13636.00
2023-10-31T09:43:58.415Z,18912.00
2023-10-31T09:44:58.409Z,17728.00
2023-10-31T09:45:58.458Z,16576.00
2023-10-31T09:46:58.431Z,10704.00
2023-10-31T09:47:59.414Z,14392.00
2023-10-31T09:48:58.387Z,10340.00
2023-10-31T09:49:58.400Z,15456.00
2023-10-31T09:50:58.357Z,10528.00
2023-10-31T09:51:58.366Z,7192.00
2023-10-31T09:52:58.385Z,14916.00
2023-10-31T09:53:58.408Z,9024.00
2023-10-31T09:54:58.370Z,13988.00
2023-10-31T09:55:59.003Z,7104.00
2023-10-31T09:56:58.324Z,16064.00
2023-10-31T09:57:58.286Z,5772.00
2023-10-31T09:58:58.376Z,4856.00
2023-10-31T09:59:58.319Z,5680.00
2023-10-31T10:00:58.276Z,5372.00
2023-10-31T10:01:58.481Z,6108.00
2023-10-31T10:02:58.317Z,4608.00
2023-10-31T10:03:58.362Z,5036.00
2023-10-31T10:04:58.313Z,4988.00
2023-10-31T10:05:59.260Z,4468.00
2023-10-31T10:06:58.210Z,4640.00
2023-10-31T10:07:58.260Z,4944.00
2023-10-31T10:08:58.231Z,5552.00
2023-10-31T10:09:58.187Z,14660.00
2023-10-31T10:10:58.214Z,14980.00
2023-10-31T10:11:58.184Z,10272.00
2023-10-31T10:12:58.167Z,9220.00
2023-10-31T10:13:58.182Z,14632.00
2023-10-31T10:14:58.169Z,13288.00
2023-10-31T10:15:58.210Z,15776.00
2023-10-31T10:16:58.213Z,14852.00
2023-10-31T10:17:58.160Z,16000.00
2023-10-31T10:18:58.130Z,11892.00
2023-10-31T10:19:58.180Z,13068.00
2023-10-31T10:20:58.146Z,13664.00
2023-10-31T10:21:58.098Z,14388.00
2023-10-31T10:22:58.151Z,15456.00
2023-10-31T10:23:58.113Z,12956.00
2023-10-31T10:24:58.130Z,9024.00
2023-10-31T10:25:58.149Z,9004.00
2023-10-31T10:26:58.062Z,7724.00
2023-10-31T10:27:58.052Z,7600.00
2023-10-31T10:28:58.064Z,7736.00
2023-10-31T10:29:58.070Z,5760.00
2023-10-31T10:30:58.067Z,4356.00
2023-10-31T10:31:58.056Z,3988.00
2023-10-31T10:32:58.043Z,4180.00
2023-10-31T10:33:58.682Z,5316.00
2023-10-31T10:35:31.053Z,4948.00
2023-10-31T10:36:30.628Z,5204.00
2023-10-31T10:37:29.940Z,5028.00
2023-10-31T10:38:30.382Z,5080.00
2023-10-31T10:38:57.955Z,4816.00
2023-10-31T10:39:58.869Z,4480.00
2023-10-31T10:40:58.013Z,3812.00
2023-10-31T10:41:57.933Z,3244.00
2023-10-31T10:42:57.952Z,3108.00
2023-10-31T10:43:57.928Z,3208.00
2023-10-31T10:44:58.628Z,3248.00
2023-10-31T10:45:59.036Z,2872.00
2023-10-31T10:46:57.995Z,2448.00
2023-10-31T10:47:58.007Z,2268.00
2023-10-31T10:48:58.827Z,2384.00
2023-10-31T10:49:58.877Z,2564.00
2023-10-31T10:50:57.899Z,2716.00
2023-10-31T10:51:58.634Z,2712.00
2023-10-31T10:52:57.928Z,2700.00
2023-10-31T10:53:57.944Z,2976.00
2023-10-31T10:54:57.868Z,3484.00
2023-10-31T10:55:58.294Z,3908.00
2023-10-31T10:56:57.863Z,4176.00
2023-10-31T10:57:57.939Z,3992.00
2023-10-31T10:58:58.688Z,4192.00
2023-10-31T10:59:57.864Z,3544.00
2023-10-31T11:00:57.856Z,2688.00
2023-10-31T11:01:57.834Z,2244.00
2023-10-31T11:02:58.013Z,2224.00
2023-10-31T11:03:58.383Z,2348.00
2023-10-31T11:04:57.806Z,2748.00
2023-10-31T11:05:57.796Z,3484.00
2023-10-31T11:06:57.775Z,4328.00
2023-10-31T11:07:59.885Z,4624.00
2023-10-31T11:09:00.311Z,4448.00
2023-10-31T11:09:57.791Z,4232.00
2023-10-31T11:10:58.006Z,3600.00
2023-10-31T11:11:57.905Z,2960.00
2023-10-31T11:12:57.865Z,2588.00
2023-10-31T11:13:57.763Z,2648.00
2023-10-31T11:14:57.746Z,2588.00
2023-10-31T11:15:57.735Z,2664.00
2023-10-31T11:16:57.707Z,2600.00
2023-10-31T11:17:57.683Z,2560.00
2023-10-31T11:18:57.639Z,2740.00
2023-10-31T11:19:57.842Z,2844.00
2023-10-31T11:20:57.657Z,2644.00
2023-10-31T11:21:57.656Z,2172.00
2023-10-31T11:22:58.391Z,2152.00
2023-10-31T11:23:57.631Z,2140.00
2023-10-31T11:24:57.691Z,2044.00
2023-10-31T11:25:58.278Z,1792.00
2023-10-31T11:26:57.710Z,1556.00
2023-10-31T11:27:58.530Z,1352.00
2023-10-31T11:28:57.780Z,1144.00
2023-10-31T11:29:58.418Z,968.00
2023-10-31T11:30:57.589Z,892.00
2023-10-31T11:31:57.601Z,864.00
2023-10-31T11:32:57.587Z,852.00
2023-10-31T11:33:57.546Z,940.00
2023-10-31T11:34:57.640Z,1208.00
2023-10-31T11:35:57.596Z,1256.00
2023-10-31T11:36:58.335Z,1268.00
2023-10-31T11:37:58.366Z,1304.00
2023-10-31T11:38:57.607Z,1324.00
2023-10-31T11:39:57.661Z,1368.00
2023-10-31T11:40:57.890Z,1428.00
2023-10-31T11:41:57.618Z,1476.00
2023-10-31T11:42:57.503Z,1644.00
2023-10-31T11:43:57.524Z,1944.00
2023-10-31T11:44:57.451Z,2480.00
2023-10-31T11:45:57.518Z,2612.00
2023-10-31T11:46:57.441Z,2592.00
2023-10-31T11:47:58.285Z,2620.00
2023-10-31T11:48:58.233Z,2796.00
2023-10-31T11:49:58.382Z,2984.00
2023-10-31T11:50:57.730Z,2972.00
2023-10-31T11:51:58.392Z,3096.00
2023-10-31T11:52:57.484Z,3284.00
2023-10-31T11:53:57.400Z,3592.00
2023-10-31T11:54:57.387Z,3848.00
2023-10-31T11:55:57.413Z,4076.00
2023-10-31T11:56:57.347Z,4144.00
2023-10-31T11:57:57.349Z,3940.00
2023-10-31T11:58:58.233Z,3980.00
2023-10-31T12:00:29.777Z,4228.00
2023-10-31T12:00:57.422Z,4276.00
2023-10-31T12:01:57.366Z,4188.00
2023-10-31T12:02:57.385Z,3856.00
2023-10-31T12:03:57.458Z,3664.00
2023-10-31T12:04:57.307Z,3536.00
2023-10-31T12:05:57.250Z,3408.00
2023-10-31T12:06:57.257Z,3188.00
2023-10-31T12:07:57.940Z,2960.00
2023-10-31T12:08:57.260Z,2708.00
2023-10-31T12:09:57.250Z,2352.00
2023-10-31T12:10:57.275Z,2160.00
2023-10-31T12:11:57.213Z,1956.00
2023-10-31T12:12:57.231Z,1704.00
2023-10-31T12:13:57.251Z,1716.00
2023-10-31T12:14:57.198Z,1680.00
2023-10-31T12:15:57.230Z,1776.00
2023-10-31T12:16:57.205Z,1824.00
2023-10-31T12:17:57.224Z,1696.00
2023-10-31T12:18:57.169Z,1512.00
2023-10-31T12:19:57.185Z,1500.00
2023-10-31T12:20:57.150Z,1616.00
2023-10-31T12:21:57.159Z,1788.00
2023-10-31T12:22:57.189Z,2092.00
2023-10-31T12:24:29.707Z,2324.00
2023-10-31T12:24:57.126Z,1932.00
2023-10-31T12:25:57.926Z,1720.00
2023-10-31T12:26:57.096Z,1580.00
2023-10-31T12:27:57.092Z,2000.00
2023-10-31T12:28:57.769Z,2660.00
2023-10-31T12:29:57.099Z,3084.00
2023-10-31T12:30:58.130Z,3572.00
2023-10-31T12:31:57.153Z,3784.00
2023-10-31T12:32:57.170Z,3748.00
2023-10-31T12:33:57.903Z,3688.00
2023-10-31T12:34:57.106Z,3680.00
2023-10-31T12:35:57.086Z,3668.00
2023-10-31T12:36:57.808Z,3528.00
2023-10-31T12:37:57.108Z,3364.00
2023-10-31T12:38:57.042Z,3240.00
2023-10-31T12:39:57.110Z,3052.00
2023-10-31T12:40:57.112Z,2992.00
2023-10-31T12:41:57.005Z,2916.00
2023-10-31T12:42:57.014Z,2948.00
2023-10-31T12:43:57.123Z,3056.00
2023-10-31T12:44:57.898Z,3080.00
2023-10-31T12:45:58.157Z,4156.00
2023-10-31T12:46:57.181Z,3560.00
2023-10-31T12:47:57.027Z,3636.00
2023-10-31T12:48:56.968Z,3780.00
2023-10-31T12:49:56.990Z,3940.00
2023-10-31T12:50:56.970Z,3868.00
2023-10-31T12:51:57.004Z,3844.00
2023-10-31T12:52:58.462Z,4004.00
2023-10-31T12:53:56.938Z,4324.00
2023-10-31T12:54:56.871Z,5340.00
2023-10-31T12:55:56.905Z,4800.00
2023-10-31T12:56:56.926Z,5992.00
2023-10-31T12:57:56.919Z,5436.00
2023-10-31T12:58:56.866Z,5300.00
2023-10-31T12:59:56.856Z,5796.00
2023-10-31T13:00:56.848Z,5580.00
2023-10-31T13:01:57.495Z,5248.00
2023-10-31T13:02:57.051Z,4544.00
2023-10-31T13:03:56.916Z,5936.00
2023-10-31T13:04:56.862Z,5048.00
2023-10-31T13:05:56.936Z,5032.00
2023-10-31T13:06:56.834Z,6548.00
2023-10-31T13:07:57.006Z,6816.00